createdAt,value
2022-11-23T00:01:22.479Z,82.39
2022-11-23T00:03:51.370Z,82.35
2022-11-23T00:06:18.714Z,82.46
2022-11-23T00:08:45.365Z,82.22
2022-11-23T00:11:12.271Z,82.31
2022-11-23T00:13:40.230Z,82.30
2022-11-23T00:16:17.187Z,82.17
2022-11-23T00:18:44.510Z,82.35
2022-11-23T00:21:16.426Z,82.52
2022-11-23T00:23:44.347Z,82.45
2022-11-23T00:26:12.250Z,82.59
2022-11-23T00:28:40.154Z,82.60
2022-11-23T00:31:09.669Z,82.54
2022-11-23T00:33:37.601Z,82.60
2022-11-23T00:36:06.163Z,82.45
2022-11-23T00:38:32.847Z,82.53
2022-11-23T00:41:08.095Z,82.75
2022-11-23T00:43:34.664Z,82.91
2022-11-23T00:46:05.910Z,82.90
2022-11-23T00:48:33.128Z,82.85
2022-11-23T00:51:01.394Z,82.72
2022-11-23T00:53:28.394Z,82.73
2022-11-23T00:55:56.677Z,82.85
2022-11-23T00:58:24.328Z,82.79
2022-11-23T01:00:59.203Z,82.84
2022-11-23T01:03:25.679Z,82.90
2022-11-23T01:05:52.456Z,82.96
2022-11-23T01:08:21.037Z,83.18
2022-11-23T01:10:47.640Z,83.05
2022-11-23T01:13:14.049Z,83.11
2022-11-23T01:15:49.481Z,83.07
2022-11-23T01:18:16.538Z,83.22
2022-11-23T01:20:43.035Z,83.21
2022-11-23T01:23:09.721Z,83.15
2022-11-23T01:25:36.926Z,83.15
2022-11-23T01:28:04.458Z,83.23
2022-11-23T01:30:31.359Z,83.22
2022-11-23T01:32:57.800Z,83.12
2022-11-23T01:35:24.438Z,83.16
2022-11-23T01:37:51.541Z,83.11
2022-11-23T01:40:18.127Z,83.32
2022-11-23T01:42:59.908Z,83.30
2022-11-23T01:45:40.519Z,83.41
2022-11-23T01:48:21.833Z,83.56
2022-11-23T01:50:51.827Z,83.53
2022-11-23T01:53:20.363Z,83.51
2022-11-23T01:55:51.364Z,83.30
2022-11-23T01:58:20.487Z,83.38
2022-11-23T02:00:49.222Z,83.24
2022-11-23T02:03:17.214Z,83.49
2022-11-23T02:05:47.942Z,83.40
2022-11-23T02:08:16.936Z,83.39
2022-11-23T02:10:44.583Z,83.22
2022-11-23T02:13:12.845Z,83.33
2022-11-23T02:15:40.633Z,83.10
2022-11-23T02:18:15.968Z,83.01
2022-11-23T02:20:43.333Z,83.06
2022-11-23T02:23:09.708Z,83.15
2022-11-23T02:25:45.453Z,83.01
2022-11-23T02:28:16.959Z,82.89
2022-11-23T02:30:47.571Z,82.88
2022-11-23T02:33:14.130Z,82.89
2022-11-23T02:35:55.799Z,83.12
2022-11-23T02:38:24.378Z,82.77
2022-11-23T02:40:51.092Z,82.74
2022-11-23T02:43:29.957Z,82.74
2022-11-23T02:45:59.038Z,82.75
2022-11-23T02:48:25.765Z,82.65
2022-11-23T02:50:52.434Z,82.63
2022-11-23T02:53:19.212Z,82.52
2022-11-23T02:55:46.155Z,82.78
2022-11-23T02:58:12.744Z,82.82
2022-11-23T03:00:39.418Z,82.85
2022-11-23T03:03:06.028Z,82.97
2022-11-23T03:05:33.164Z,82.88
2022-11-23T03:08:04.092Z,82.90
2022-11-23T03:10:30.873Z,82.92
2022-11-23T03:12:57.592Z,82.69
2022-11-23T03:15:24.433Z,82.79
2022-11-23T03:17:52.204Z,82.82
2022-11-23T03:20:20.061Z,82.65
2022-11-23T03:22:48.670Z,82.78
2022-11-23T03:25:15.739Z,82.71
2022-11-23T03:27:44.170Z,82.77
2022-11-23T03:30:11.056Z,82.77
2022-11-23T03:32:37.627Z,82.74
2022-11-23T03:35:05.732Z,82.68
2022-11-23T03:37:33.456Z,82.54
2022-11-23T03:39:59.975Z,82.66
2022-11-23T03:42:45.364Z,82.50
2022-11-23T03:45:12.326Z,82.54
2022-11-23T03:47:39.699Z,82.60
2022-11-23T03:50:06.815Z,82.52
2022-11-23T03:52:33.428Z,82.47
2022-11-23T03:55:00.202Z,82.54
2022-11-23T03:57:26.836Z,82.44
2022-11-23T03:59:53.720Z,82.76
2022-11-23T04:02:21.116Z,82.74
2022-11-23T04:05:00.876Z,82.81
2022-11-23T04:07:54.573Z,82.76
2022-11-23T04:10:21.528Z,82.86
2022-11-23T04:13:10.682Z,82.78
2022-11-23T04:15:37.500Z,82.88
2022-11-23T04:18:04.365Z,82.80
2022-11-23T04:20:30.888Z,82.97
2022-11-23T04:22:57.620Z,82.89
2022-11-23T04:25:25.188Z,82.93
2022-11-23T04:27:52.054Z,82.94
2022-11-23T04:30:19.040Z,82.79
2022-11-23T04:32:46.305Z,82.84
2022-11-23T04:35:14.214Z,82.73
2022-11-23T04:37:41.727Z,82.81
2022-11-23T04:40:09.325Z,83.03
2022-11-23T04:43:02.723Z,83.00
2022-11-23T04:45:32.158Z,83.01
2022-11-23T04:48:02.144Z,83.04
2022-11-23T04:50:29.040Z,83.04
2022-11-23T04:52:55.568Z,82.95
2022-11-23T04:55:26.577Z,82.80
2022-11-23T04:57:57.429Z,82.66
2022-11-23T05:00:26.895Z,82.85
2022-11-23T05:02:54.211Z,82.94
2022-11-23T05:05:25.028Z,83.13
2022-11-23T05:07:51.767Z,83.07
2022-11-23T05:10:20.605Z,83.01
2022-11-23T05:12:47.511Z,83.20
2022-11-23T05:15:14.365Z,83.11
2022-11-23T05:17:41.429Z,83.06
2022-11-23T05:20:13.441Z,82.87
2022-11-23T05:22:44.024Z,82.77
2022-11-23T05:25:12.977Z,82.91
2022-11-23T05:27:39.826Z,83.04
2022-11-23T05:30:07.414Z,83.23
2022-11-23T05:32:34.084Z,83.30
2022-11-23T05:35:01.943Z,83.13
2022-11-23T05:37:30.321Z,83.06
2022-11-23T05:40:01.385Z,83.02
2022-11-23T05:42:29.957Z,83.13
2022-11-23T05:45:00.581Z,83.08
2022-11-23T05:47:34.918Z,82.95
2022-11-23T05:50:03.581Z,82.95
2022-11-23T05:52:30.451Z,82.88
2022-11-23T05:54:57.489Z,82.99
2022-11-23T05:57:24.230Z,82.89
2022-11-23T05:59:50.993Z,82.94
2022-11-23T06:02:21.040Z,82.85
2022-11-23T06:04:49.812Z,82.89
2022-11-23T06:07:19.175Z,82.86
2022-11-23T06:10:03.906Z,82.89
2022-11-23T06:12:32.833Z,83.01
2022-11-23T06:15:00.046Z,82.80
2022-11-23T06:17:26.985Z,82.66
2022-11-23T06:19:59.646Z,82.53
2022-11-23T06:22:26.261Z,82.62
2022-11-23T06:25:00.331Z,82.58
2022-11-23T06:27:35.755Z,82.60
2022-11-23T06:30:05.968Z,82.77
2022-11-23T06:32:32.875Z,82.60
2022-11-23T06:35:00.983Z,82.56
2022-11-23T06:37:30.064Z,82.77
2022-11-23T06:39:56.881Z,82.74
2022-11-23T06:42:38.373Z,82.59
2022-11-23T06:45:08.693Z,82.74
2022-11-23T06:47:36.465Z,82.76
2022-11-23T06:50:05.006Z,82.70
2022-11-23T06:52:31.790Z,82.61
2022-11-23T06:54:58.293Z,82.82
2022-11-23T06:57:25.077Z,82.83
2022-11-23T06:59:53.047Z,82.93
2022-11-23T07:02:23.645Z,82.92
2022-11-23T07:04:52.301Z,82.73
2022-11-23T07:07:19.479Z,82.72
2022-11-23T07:09:54.502Z,82.73
2022-11-23T07:12:29.881Z,82.80
2022-11-23T07:14:58.510Z,82.86
2022-11-23T07:17:25.233Z,82.88
2022-11-23T07:19:52.137Z,82.82
2022-11-23T07:22:18.705Z,82.81
2022-11-23T07:24:46.934Z,82.65
2022-11-23T07:27:16.579Z,82.78
2022-11-23T07:29:43.683Z,82.76
2022-11-23T07:32:10.863Z,82.71
2022-11-23T07:34:37.533Z,83.01
2022-11-23T07:37:06.589Z,82.81
2022-11-23T07:39:55.613Z,82.63
2022-11-23T07:42:41.521Z,82.70
2022-11-23T07:45:07.993Z,82.66
2022-11-23T07:47:37.148Z,82.50
2022-11-23T07:50:06.146Z,82.47
2022-11-23T07:52:32.802Z,82.41
2022-11-23T07:55:00.410Z,82.59
2022-11-23T07:57:27.298Z,82.43
2022-11-23T07:59:53.866Z,82.42
2022-11-23T08:02:20.915Z,82.53
2022-11-23T08:04:47.635Z,82.66
2022-11-23T08:07:14.263Z,82.80
2022-11-23T08:09:41.222Z,82.74
2022-11-23T08:16:51.477Z,82.56
2022-11-23T08:19:19.355Z,82.81
2022-11-23T08:21:47.196Z,82.74
2022-11-23T08:24:15.293Z,82.90
2022-11-23T08:26:43.375Z,82.75
2022-11-23T08:29:11.426Z,82.85
2022-11-23T08:31:39.544Z,82.82
2022-11-23T08:34:07.606Z,82.72
2022-11-23T08:36:35.611Z,82.76
2022-11-23T08:39:03.743Z,82.76
2022-11-23T08:41:31.687Z,82.67
2022-11-23T08:43:59.639Z,82.75
2022-11-23T08:46:27.878Z,82.57
2022-11-23T08:48:55.907Z,82.43
2022-11-23T08:51:23.774Z,82.44
2022-11-23T08:53:57.014Z,82.52
2022-11-23T08:56:25.076Z,82.47
2022-11-23T08:58:53.483Z,82.39
2022-11-23T09:01:21.663Z,82.29
2022-11-23T09:03:49.715Z,82.30
2022-11-23T09:06:17.623Z,82.56
2022-11-23T09:08:45.756Z,82.42
2022-11-23T09:11:14.645Z,82.35
2022-11-23T09:13:42.620Z,82.31
2022-11-23T09:16:10.794Z,82.30
2022-11-23T09:18:38.699Z,82.28
2022-11-23T09:21:06.916Z,82.24
2022-11-23T09:23:35.290Z,82.27
2022-11-23T09:26:05.129Z,82.43
2022-11-23T09:28:33.682Z,82.42
2022-11-23T09:31:04.899Z,82.32
2022-11-23T09:33:32.906Z,82.10
2022-11-23T09:36:02.943Z,82.43
2022-11-23T09:38:55.564Z,82.42
2022-11-23T09:41:57.557Z,82.38
2022-11-23T09:44:41.090Z,82.31
2022-11-23T09:47:41.166Z,82.43
2022-11-23T09:50:12.077Z,82.43
2022-11-23T09:52:45.422Z,82.35
2022-11-23T09:55:34.562Z,82.03
2022-11-23T09:58:05.851Z,82.13
2022-11-23T10:00:39.236Z,82.05
2022-11-23T10:03:16.248Z,81.99
2022-11-23T10:05:53.599Z,82.02
2022-11-23T10:08:40.967Z,81.99
2022-11-23T10:11:27.017Z,81.90
2022-11-23T10:14:07.137Z,81.75
2022-11-23T10:16:49.255Z,81.43
2022-11-23T10:19:20.215Z,81.48
2022-11-23T10:22:06.610Z,81.53
2022-11-23T10:24:50.143Z,81.59
2022-11-23T10:27:20.546Z,81.42
2022-11-23T10:29:49.404Z,81.44
2022-11-23T10:32:43.649Z,81.53
2022-11-23T10:35:18.367Z,81.24
2022-11-23T10:37:46.547Z,81.18
2022-11-23T10:40:22.724Z,81.14
2022-11-23T10:42:56.307Z,81.19
2022-11-23T10:45:27.305Z,81.14
2022-11-23T10:47:59.811Z,81.19
2022-11-23T10:50:32.525Z,81.31
2022-11-23T10:53:19.339Z,81.19
2022-11-23T10:55:59.869Z,81.09
2022-11-23T10:58:35.943Z,81.07
2022-11-23T11:01:06.704Z,80.97
2022-11-23T11:03:35.444Z,81.08
2022-11-23T11:06:11.935Z,81.13
2022-11-23T11:08:53.641Z,81.03
2022-11-23T11:11:26.207Z,80.95
2022-11-23T11:14:03.820Z,81.06
2022-11-23T11:16:34.992Z,81.03
2022-11-23T11:19:31.551Z,80.83
2022-11-23T11:22:01.985Z,80.86
2022-11-23T11:24:43.703Z,80.78
2022-11-23T11:27:16.060Z,80.62
2022-11-23T11:29:44.139Z,81.09
2022-11-23T11:32:41.865Z,80.75
2022-11-23T11:35:34.752Z,80.62
2022-11-23T11:38:11.235Z,80.71
2022-11-23T11:40:49.952Z,80.43
2022-11-23T11:43:39.647Z,80.34
2022-11-23T11:46:31.255Z,80.22
2022-11-23T11:49:15.162Z,80.22
2022-11-23T11:51:53.351Z,80.26
2022-11-23T11:54:37.406Z,80.59
2022-11-23T11:57:17.215Z,80.42
2022-11-23T11:59:49.049Z,80.64
2022-11-23T12:02:23.520Z,80.38
2022-11-23T12:05:25.662Z,80.42
2022-11-23T12:08:08.325Z,80.16
2022-11-23T12:10:56.024Z,80.05
2022-11-23T12:13:32.433Z,80.12
2022-11-23T12:16:33.745Z,80.00
2022-11-23T12:19:23.990Z,79.90
2022-11-23T12:22:23.544Z,79.96
2022-11-23T12:25:23.046Z,80.02
2022-11-23T12:28:18.141Z,79.88
2022-11-23T12:30:58.272Z,79.87
2022-11-23T12:36:35.285Z,79.97
2022-11-23T12:39:15.376Z,80.16
2022-11-23T12:42:06.167Z,80.18
2022-11-23T12:44:41.538Z,80.16
2022-11-23T12:47:21.657Z,80.11
2022-11-23T12:50:10.408Z,80.03
2022-11-23T12:53:07.021Z,79.97
2022-11-23T12:55:47.687Z,79.95
2022-11-23T12:58:25.950Z,79.91
2022-11-23T13:01:00.967Z,79.87
2022-11-23T13:03:52.956Z,80.02
2022-11-23T13:06:30.275Z,80.09
2022-11-23T13:09:19.887Z,80.02
2022-11-23T13:11:57.291Z,80.15
2022-11-23T13:14:28.201Z,79.91
2022-11-23T13:17:01.929Z,79.99
2022-11-23T13:19:48.817Z,79.88
2022-11-23T13:22:19.934Z,79.87
2022-11-23T13:25:10.104Z,79.71
2022-11-23T13:27:48.775Z,79.77
2022-11-23T13:30:45.636Z,79.81
2022-11-23T13:33:21.049Z,79.90
2022-11-23T13:35:56.263Z,79.79
2022-11-23T13:38:26.771Z,79.79
2022-11-23T13:40:57.788Z,79.81
2022-11-23T13:43:30.327Z,79.72
2022-11-23T13:46:31.149Z,79.51
2022-11-23T13:49:00.869Z,79.72
2022-11-23T13:51:36.100Z,79.77
2022-11-23T13:54:19.189Z,79.80
2022-11-23T13:57:05.199Z,79.90
2022-11-23T13:59:35.018Z,79.76
2022-11-23T14:02:10.359Z,79.84
2022-11-23T14:04:44.129Z,79.71
2022-11-23T14:07:26.828Z,79.79
2022-11-23T14:10:09.880Z,79.97
2022-11-23T14:13:29.068Z,79.76
2022-11-23T14:16:03.959Z,79.60
2022-11-23T14:18:58.874Z,79.91
2022-11-23T14:21:40.827Z,79.76
2022-11-23T14:24:21.411Z,79.91
2022-11-23T14:28:08.056Z,79.96
2022-11-23T14:30:07.274Z,80.06
2022-11-23T14:33:00.473Z,79.80
2022-11-23T14:35:43.493Z,79.79
2022-11-23T14:38:42.778Z,79.87
2022-11-23T14:41:23.761Z,79.93
2022-11-23T14:43:53.388Z,79.92
2022-11-23T14:46:29.284Z,79.90
2022-11-23T14:49:13.487Z,79.98
2022-11-23T14:51:45.151Z,80.05
2022-11-23T14:54:16.910Z,80.07
2022-11-23T14:56:50.629Z,79.81
2022-11-23T14:59:31.518Z,79.78
2022-11-23T15:01:59.546Z,79.74
2022-11-23T15:04:34.817Z,79.58
2022-11-23T15:07:14.030Z,79.62
2022-11-23T15:09:49.458Z,79.80
2022-11-23T15:12:22.339Z,79.92
2022-11-23T15:14:54.273Z,79.88
2022-11-23T15:17:22.534Z,79.91
2022-11-23T15:19:59.490Z,79.88
2022-11-23T15:22:29.267Z,79.97
2022-11-23T15:25:08.431Z,80.00
2022-11-23T15:27:39.922Z,79.94
2022-11-23T15:30:41.046Z,79.78
2022-11-23T15:33:11.725Z,79.71
2022-11-23T15:35:40.880Z,79.78
2022-11-23T15:38:17.784Z,79.87
2022-11-23T15:40:50.084Z,79.81
2022-11-23T15:43:19.777Z,80.07
2022-11-23T15:45:48.398Z,79.73
2022-11-23T15:48:17.288Z,79.80
2022-11-23T15:50:56.755Z,79.82
2022-11-23T15:53:27.333Z,79.57
2022-11-23T15:56:01.654Z,79.52
2022-11-23T15:58:30.712Z,79.61
2022-11-23T16:01:44.466Z,79.84
2022-11-23T16:04:31.557Z,79.83
2022-11-23T16:07:16.223Z,79.88
2022-11-23T16:09:52.383Z,79.94
2022-11-23T16:12:34.261Z,79.89
2022-11-23T16:15:27.382Z,79.82
2022-11-23T16:17:56.420Z,79.76
2022-11-23T16:20:25.946Z,79.90
2022-11-23T16:22:55.927Z,79.84
2022-11-23T16:25:34.210Z,79.92
2022-11-23T16:28:38.572Z,79.85
2022-11-23T16:31:28.375Z,79.92
2022-11-23T16:33:57.355Z,79.87
2022-11-23T16:36:28.826Z,79.93
2022-11-23T16:39:05.187Z,79.87
2022-11-23T16:41:36.577Z,80.09
2022-11-23T16:44:10.856Z,79.76
2022-11-23T16:46:43.293Z,79.90
2022-11-23T16:49:16.477Z,79.73
2022-11-23T16:51:56.178Z,79.74
2022-11-23T16:54:25.848Z,80.06
2022-11-23T16:56:54.244Z,79.80
2022-11-23T16:59:23.911Z,79.80
2022-11-23T17:01:57.023Z,79.82
2022-11-23T17:07:11.976Z,79.87
2022-11-23T17:09:49.692Z,80.04
2022-11-23T17:12:21.754Z,79.87
2022-11-23T17:14:50.408Z,79.95
2022-11-23T17:17:22.967Z,79.85
2022-11-23T17:19:52.094Z,79.67
2022-11-23T17:22:20.372Z,79.93
2022-11-23T17:24:49.911Z,79.86
2022-11-23T17:27:24.828Z,79.99
2022-11-23T17:30:01.936Z,79.85
2022-11-23T17:32:31.245Z,80.05
2022-11-23T17:34:59.931Z,80.06
2022-11-23T17:37:28.282Z,80.36
2022-11-23T17:39:56.209Z,80.19
2022-11-23T17:42:24.687Z,80.21
2022-11-23T17:44:53.279Z,80.18
2022-11-23T17:47:28.940Z,80.29
2022-11-23T17:49:58.850Z,80.12
2022-11-23T17:52:27.440Z,79.92
2022-11-23T17:54:56.377Z,80.07
2022-11-23T17:57:27.188Z,80.07
2022-11-23T17:59:59.298Z,80.18
2022-11-23T18:02:40.371Z,80.26
2022-11-23T18:05:08.860Z,80.27
2022-11-23T18:07:37.845Z,80.16
2022-11-23T18:10:06.535Z,80.18
2022-11-23T18:12:34.409Z,80.11
2022-11-23T18:15:02.386Z,80.01
2022-11-23T18:17:33.573Z,80.12
2022-11-23T18:20:01.777Z,80.00
2022-11-23T18:22:30.297Z,79.93
2022-11-23T18:24:58.384Z,79.98
2022-11-23T18:27:26.305Z,80.12
2022-11-23T18:29:54.285Z,80.23
2022-11-23T18:32:22.407Z,80.07
2022-11-23T18:34:50.643Z,79.98
2022-11-23T18:37:19.575Z,80.15
2022-11-23T18:39:47.816Z,80.10
2022-11-23T18:42:15.924Z,80.08
2022-11-23T18:44:43.769Z,80.36
2022-11-23T18:47:12.026Z,80.33
2022-11-23T18:49:39.861Z,80.12
2022-11-23T18:52:09.271Z,80.28
2022-11-23T18:54:38.879Z,80.09
2022-11-23T18:57:07.985Z,80.13
2022-11-23T18:59:56.870Z,80.23
2022-11-23T19:02:27.491Z,80.22
2022-11-23T19:04:55.470Z,80.15
2022-11-23T19:07:27.340Z,80.44
2022-11-23T19:09:56.693Z,80.52
2022-11-23T19:12:27.666Z,80.34
2022-11-23T19:14:55.629Z,80.27
2022-11-23T19:17:24.756Z,80.09
2022-11-23T19:19:52.647Z,80.13
2022-11-23T19:22:20.717Z,80.07
2022-11-23T19:24:49.647Z,79.96
2022-11-23T19:27:18.086Z,80.06
2022-11-23T19:29:48.019Z,80.11
2022-11-23T19:32:16.124Z,80.20
2022-11-23T19:34:44.080Z,80.55
2022-11-23T19:37:12.079Z,80.37
2022-11-23T19:39:40.303Z,80.44
2022-11-23T19:42:09.480Z,80.56
2022-11-23T19:44:37.706Z,80.57
2022-11-23T19:47:13.746Z,80.44
2022-11-23T19:49:43.410Z,80.53
2022-11-23T19:52:11.677Z,80.42
2022-11-23T19:54:39.540Z,80.59
2022-11-23T19:57:07.596Z,80.71
2022-11-23T19:59:36.248Z,80.58
2022-11-23T20:02:04.535Z,80.82
2022-11-23T20:04:32.699Z,80.69
2022-11-23T20:07:01.213Z,80.89
2022-11-23T20:09:29.920Z,80.77
2022-11-23T20:11:58.007Z,80.77
2022-11-23T20:14:26.540Z,80.90
2022-11-23T20:16:56.039Z,80.58
2022-11-23T20:19:24.477Z,80.46
2022-11-23T20:21:53.547Z,80.33
2022-11-23T20:24:21.721Z,80.27
2022-11-23T20:26:51.526Z,80.32
2022-11-23T20:29:19.780Z,80.23
2022-11-23T20:31:48.053Z,80.43
2022-11-23T20:34:20.571Z,80.48
2022-11-23T20:36:51.850Z,80.65
2022-11-23T20:39:19.897Z,80.63
2022-11-23T20:41:49.930Z,80.39
2022-11-23T20:44:18.173Z,80.47
2022-11-23T20:47:01.175Z,80.44
2022-11-23T20:49:30.583Z,80.26
2022-11-23T20:51:59.758Z,80.16
2022-11-23T20:54:28.593Z,80.28
2022-11-23T20:57:00.868Z,80.27
2022-11-23T20:59:29.249Z,80.28
2022-11-23T21:01:57.639Z,80.14
2022-11-23T21:04:26.705Z,80.15
2022-11-23T21:06:55.120Z,80.00
2022-11-23T21:09:23.386Z,80.04
2022-11-23T21:12:10.475Z,80.08
2022-11-23T21:14:38.953Z,79.97
2022-11-23T21:17:07.373Z,80.09
2022-11-23T21:19:38.021Z,80.12
2022-11-23T21:22:08.521Z,79.92
2022-11-23T21:24:37.404Z,80.27
2022-11-23T21:27:08.534Z,80.17
2022-11-23T21:29:39.495Z,80.23
2022-11-23T21:32:07.812Z,80.25
2022-11-23T21:34:37.006Z,80.13
2022-11-23T21:37:05.279Z,79.97
2022-11-23T21:39:33.622Z,79.72
2022-11-23T21:42:01.620Z,79.75
2022-11-23T21:44:29.915Z,79.77
2022-11-23T21:46:58.199Z,79.95
2022-11-23T21:49:31.027Z,79.76
2022-11-23T21:51:59.111Z,80.04
2022-11-23T21:54:27.201Z,79.84
2022-11-23T21:56:55.476Z,79.91
2022-11-23T21:59:24.822Z,79.93
2022-11-23T22:01:57.372Z,79.92
2022-11-23T22:04:26.673Z,79.74
2022-11-23T22:06:54.667Z,79.74
2022-11-23T22:09:22.919Z,79.69
2022-11-23T22:11:51.324Z,79.64
2022-11-23T22:14:19.924Z,79.69
2022-11-23T22:16:54.620Z,79.69
2022-11-23T22:19:22.999Z,79.49
2022-11-23T22:21:52.029Z,79.65
2022-11-23T22:24:22.519Z,79.55
2022-11-23T22:26:50.829Z,79.66
2022-11-23T22:29:18.932Z,79.56
2022-11-23T22:31:47.086Z,79.57
2022-11-23T22:34:15.424Z,79.60
2022-11-23T22:36:43.612Z,79.34
2022-11-23T22:39:11.873Z,79.41
2022-11-23T22:41:41.048Z,79.29
2022-11-23T22:44:10.906Z,79.25
2022-11-23T22:46:39.679Z,79.25
2022-11-23T22:49:08.070Z,79.17
2022-11-23T22:51:36.734Z,79.22
2022-11-23T22:54:05.087Z,79.17
2022-11-23T22:56:33.358Z,79.25
2022-11-23T22:59:01.297Z,79.31
2022-11-23T23:01:31.094Z,79.26
2022-11-23T23:04:01.700Z,79.34
2022-11-23T23:06:35.510Z,79.42
2022-11-23T23:09:06.634Z,79.10
2022-11-23T23:11:37.050Z,79.17
2022-11-23T23:14:06.064Z,79.07
2022-11-23T23:16:35.232Z,79.03
2022-11-23T23:19:03.754Z,79.12
2022-11-23T23:21:32.001Z,78.97
2022-11-23T23:24:01.407Z,79.03
2022-11-23T23:26:30.412Z,78.99
2022-11-23T23:29:00.694Z,78.98
2022-11-23T23:31:30.202Z,79.14
2022-11-23T23:34:00.061Z,79.14
2022-11-23T23:36:28.541Z,79.15
2022-11-23T23:38:57.994Z,79.01
2022-11-23T23:41:26.701Z,79.36
2022-11-23T23:43:55.347Z,79.33
2022-11-23T23:46:23.886Z,79.05
2022-11-23T23:48:52.076Z,79.14
2022-11-23T23:51:23.471Z,79.09
2022-11-23T23:53:52.451Z,78.91
2022-11-23T23:56:28.646Z,78.97
2022-11-23T23:58:58.074Z,79.07
